Latest Weather Observations for Cessnock Airport

IDN60801

Issued at 10:02 pm EDT Monday 10 December 2018 (issued every 10 minutes, with the page automatically refreshed every 10 minutes)

About weather observations | Map of weather stations | Latest weather observations for NSW | Other Formats
Station Details ID: 061260 Name: CESSNOCK AIRPORT AWS Lat: -32.79 Lon: 151.34 Height: 61.0 m
Data from the previous 72 hours. | See also: Recent months at Cessnock Airport
Date/Time
EDT
Temp
°C
App
Temp
°C
Dew
Point
°C
Rel
Hum
%
Delta-T
°C
Wind Press
QNH
hPa
Press
MSL
hPa
Rain since
9am
mm
Dir  Spd
km/h
Gust
km/h
Spd
kts
Gust
kts
10/10:00pm 22.6 24.1 19.0 80 2.3 S 9 11 5 6 1016.6 1016.4 0.0
10/09:30pm 22.7 23.3 18.7 78 2.5 SSW 13 17 7 9 1016.3 1016.1 0.0
10/09:00pm 22.8 24.9 19.0 79 2.4 NE 6 9 3 5 1015.7 1015.5 0.0
10/08:30pm 23.6 25.5 18.9 75 3.0 S 7 13 4 7 1015.2 1015.0 0.0
10/08:00pm 24.0 24.1 19.1 74 3.1 NE 17 20 9 11 1014.2 1014.0 0.0
10/07:30pm 25.3 26.1 17.2 61 5.0 SE 9 17 5 9 1014.5 1014.3 0.0
10/07:00pm 27.1 26.7 14.1 44 7.8 ENE 9 15 5 8 1013.3 1013.1 0.0
10/06:30pm 27.9 27.3 12.3 38 9.1 ENE 7 13 4 7 1012.4 1012.1 0.0
10/06:00pm 28.3 26.7 13.8 41 8.7 SE 15 20 8 11 1012.8 1012.6 0.0
10/05:30pm 28.8 27.2 16.0 45 7.9 ESE 19 24 10 13 1012.6 1012.4 0.0
10/05:00pm 29.6 28.4 16.1 44 8.4 ESE 17 24 9 13 1012.4 1012.1 0.0
10/04:30pm 30.4 28.2 14.9 39 9.5 SE 20 32 11 17 1012.6 1012.4 0.0
10/04:00pm 31.1 28.1 14.7 37 10.0 ESE 24 32 13 17 1012.6 1012.4 0.0
10/03:30pm 31.9 28.8 11.7 29 11.9 SE 19 26 10 14 1012.6 1012.4 0.0
10/03:00pm 32.9 30.1 11.4 27 12.6 SSE 17 32 9 17 1012.8 1012.6 0.0
10/02:30pm 32.0 29.7 11.7 28 11.9 SSE 15 20 8 11 1013.0 1012.8 0.0
10/02:00pm 31.8 30.8 13.5 32 11.0 SE 11 20 6 11 1013.1 1012.9 0.0
10/01:30pm 31.3 30.4 12.6 31 11.1 S 9 17 5 9 1013.5 1013.3 0.0
10/01:00pm 30.2 28.9 12.6 34 10.4 E 11 15 6 8 1013.9 1013.7 0.0
10/12:30pm 29.8 30.2 14.7 39 9.2 SSE 6 13 3 7 1014.1 1013.9 0.0
10/12:00pm 28.7 29.3 15.9 45 7.9 SE 7 15 4 8 1014.4 1014.2 0.0
10/11:30am 29.1 29.4 16.0 45 8.1 SSW 9 20 5 11 1014.8 1014.6 0.0
10/11:00am 28.2 26.7 16.8 50 7.1 S 20 30 11 16 1015.0 1014.8 0.0
10/10:30am 26.7 24.8 15.7 51 6.7 SSW 20 28 11 15 1015.0 1014.8 0.0
10/10:00am 26.3 25.4 16.8 56 5.9 SSW 17 28 9 15 1014.9 1014.7 0.0
10/09:30am 24.8 23.8 16.5 60 5.1 SW 17 28 9 15 1015.4 1015.2 0.0
10/09:00am 23.7 21.8 16.7 65 4.3 SW 22 32 12 17 1015.4 1015.2 0.0
10/08:30am 23.0 21.2 17.0 69 3.7 SW 22 33 12 18 1015.2 1015.0 0.0
10/08:00am 22.2 23.6 17.8 76 2.7 SW 7 11 4 6 1015.0 1014.8 0.0
10/07:30am 20.3 21.3 17.7 85 1.6 WNW 9 15 5 8 1014.5 1014.3 0.0
10/07:00am 19.2 20.0 17.2 88 1.2 NNW 9 11 5 6 1014.0 1013.8 0.0
10/06:30am 17.4 19.2 16.4 94 0.6 NNW 2 6 1 3 1013.9 1013.7 0.0
10/06:00am 16.2 17.9 15.2 94 0.6 CALM 0 0 0 0 1013.6 1013.4 0.0
10/05:30am 16.5 18.2 15.2 92 0.8 CALM 0 0 0 0 1013.4 1013.2 0.0
10/05:00am 17.9 18.9 16.8 93 0.7 NNW 7 11 4 6 1013.5 1013.3 0.0
10/04:30am 17.7 19.1 16.4 92 0.8 N 4 7 2 4 1013.3 1013.1 0.0
10/04:00am 17.5 19.0 15.7 89 1.1 ENE 2 7 1 4 1013.1 1012.9 0.0
10/03:30am 17.8 18.7 16.1 90 1.0 WNW 6 9 3 5 1013.2 1013.0 0.0
10/03:00am 18.5 19.6 16.5 88 1.2 ESE 6 7 3 4 1012.9 1012.7 0.0
10/02:30am 17.9 18.7 15.9 88 1.2 SE 6 7 3 4 1013.0 1012.8 0.0
10/02:00am 18.3 19.2 16.5 89 1.1 SSE 7 9 4 5 1013.3 1013.1 0.0
10/01:30am 17.8 18.3 15.1 84 1.6 SE 6 7 3 4 1013.7 1013.5 0.0
10/01:00am 18.7 19.3 15.8 83 1.7 SSE 7 7 4 4 1013.8 1013.6 0.0
10/12:30am 19.5 20.5 16.3 82 1.9 ESE 6 7 3 4 1013.9 1013.7 0.0
10/12:00am 20.1 21.1 16.9 82 1.9 SSE 7 9 4 5 1014.1 1013.9 0.0
 
Date/Time
EDT
Temp
°C
App
Temp
°C
Dew
Point
°C
Rel
Hum
%
Delta-T
°C
Wind Press
QNH
hPa
Press
MSL
hPa
Rain since
9am
mm
Dir  Spd
km/h
Gust
km/h
Spd
kts
Gust
kts
09/11:30pm 19.7 20.2 15.6 77 2.4 SE 7 11 4 6 1014.2 1014.0 0.0
09/11:00pm 21.4 21.8 16.4 73 3.0 SE 9 11 5 6 1014.4 1014.2 0.0
09/10:30pm 22.4 23.2 16.4 69 3.7 SSE 7 9 4 5 1014.5 1014.3 0.0
09/10:00pm 23.0 23.6 16.8 68 3.8 S 9 13 5 7 1014.8 1014.6 0.0
09/09:30pm 24.0 24.6 16.8 64 4.4 SSE 9 13 5 7 1014.5 1014.3 0.0
09/09:00pm 25.3 25.5 16.7 59 5.3 ESE 11 15 6 8 1013.9 1013.7 0.0
09/08:30pm 26.0 26.3 17.1 58 5.6 SSE 11 17 6 9 1013.7 1013.5 0.0
09/08:00pm 27.1 27.9 17.3 55 6.2 SE 9 15 5 8 1013.2 1013.0 0.0
09/07:30pm 28.3 28.2 14.9 44 8.1 SE 9 13 5 7 1012.7 1012.5 0.0
09/07:00pm 29.5 27.4 13.7 38 9.5 ENE 17 22 9 12 1012.6 1012.4 0.0
09/06:30pm 30.8 29.0 15.6 39 9.4 E 19 26 10 14 1012.3 1012.0 0.0
09/06:00pm 32.0 29.2 11.2 28 12.1 ESE 17 26 9 14 1012.0 1011.7 0.0
09/05:30pm 32.6 29.7 12.3 29 12.1 E 19 24 10 13 1012.2 1011.9 0.0
09/05:00pm 32.0 29.0 13.7 33 11.1 E 22 33 12 18 1012.7 1012.5 0.0
09/04:30pm 32.8 30.4 14.4 33 11.3 E 20 28 11 15 1012.8 1012.6 0.0
09/04:00pm 32.7 29.9 14.3 32 11.3 ENE 22 33 12 18 1013.1 1012.9 0.0
09/03:30pm 33.0 30.9 14.6 33 11.3 E 19 32 10 17 1013.4 1013.2 0.0
09/03:00pm 33.0 31.2 15.5 35 10.9 ESE 19 30 10 16 1013.6 1013.4 0.0
09/02:30pm 33.1 31.6 13.2 30 12.0 SSE 13 20 7 11 1013.9 1013.7 0.0
09/02:00pm 32.5 31.5 12.2 29 12.0 SE 9 20 5 11 1014.1 1013.9 0.0
09/01:30pm 32.2 31.6 12.4 30 11.8 SW 7 13 4 7 1014.4 1014.2 0.0
09/01:00pm 31.4 30.8 11.7 29 11.5 SW 6 13 3 7 1014.9 1014.7 0.0
09/12:30pm 30.4 30.9 12.8 34 10.4 NNW 2 9 1 5 1015.5 1015.3 0.0
09/12:00pm 29.5 29.3 12.9 36 9.8 SSW 6 15 3 8 1015.8 1015.6 0.0
09/11:30am 28.4 28.4 13.5 40 8.9 W 6 9 3 5 1016.3 1016.1 0.0
09/11:00am 27.6 29.3 16.2 49 7.0 WSW 2 9 1 5 1016.5 1016.3 0.0
09/10:30am 25.8 26.2 15.2 52 6.4 NNE 7 13 4 7 1016.8 1016.6 0.0
09/10:00am 25.0 25.8 15.9 57 5.5 NE 6 11 3 6 1016.9 1016.7 0.0
09/09:30am 23.7 24.4 16.0 62 4.7 E 7 11 4 6 1017.0 1016.8 0.0
09/09:00am 22.3 23.9 15.9 67 3.9 W 2 6 1 3 1017.0 1016.8 0.0
09/08:30am 20.6 21.6 15.4 72 3.1 NE 4 9 2 5 1017.2 1017.0 0.0
09/08:00am 19.6 20.2 15.3 76 2.5 E 6 7 3 4 1017.5 1017.3 0.0
09/07:30am 19.1 21.0 15.8 81 2.0 CALM 0 0 0 0 1017.3 1017.1 0.0
09/07:00am 16.4 18.1 15.1 92 0.8 CALM 0 0 0 0 1017.0 1016.8 0.0
09/06:30am 13.5 13.2 12.7 95 0.4 WSW 6 11 3 6 1016.8 1016.6 0.0
09/06:00am 12.2 12.6 11.4 95 0.4 CALM 0 0 0 0 1016.6 1016.4 0.0
09/05:30am 11.7 10.6 10.8 94 0.5 WSW 7 9 4 5 1016.3 1016.1 0.0
09/05:00am 12.6 13.1 11.5 93 0.6 CALM 0 0 0 0 1016.2 1016.0 0.0
09/04:30am 13.5 14.3 12.6 94 0.5 CALM 0 0 0 0 1016.2 1016.0 0.0
09/04:00am 13.8 14.6 12.5 92 0.7 CALM 0 0 0 0 1016.2 1016.0 0.0
09/03:30am 14.5 15.5 13.2 92 0.7 CALM 0 0 0 0 1016.4 1016.2 0.0
09/03:00am 15.3 16.5 13.8 91 0.8 CALM 0 0 0 0 1016.3 1016.1 0.0
09/02:30am 16.2 17.7 14.7 91 0.9 CALM 0 0 0 0 1016.4 1016.2 0.0
09/02:00am 16.8 16.8 15.2 90 0.9 SSW 9 11 5 6 1016.5 1016.3 0.0
09/01:30am 16.8 16.6 14.6 87 1.3 SSW 9 11 5 6 1016.7 1016.5 0.0
09/01:00am 17.8 17.9 15.4 86 1.4 SSW 9 11 5 6 1016.8 1016.6 0.0
09/12:30am 18.0 18.0 15.3 84 1.6 SSW 9 11 5 6 1017.0 1016.8 0.0
09/12:00am 18.6 18.7 15.5 82 1.8 S 9 11 5 6 1017.3 1017.1 0.0
 
Date/Time
EDT
Temp
°C
App
Temp
°C
Dew
Point
°C
Rel
Hum
%
Delta-T
°C
Wind Press
QNH
hPa
Press
MSL
hPa
Rain since
9am
mm
Dir  Spd
km/h
Gust
km/h
Spd
kts
Gust
kts
08/11:30pm 19.1 18.9 15.8 81 2.0 S 11 15 6 8 1017.4 1017.2 0.0
08/11:00pm 19.5 19.7 15.8 79 2.2 S 9 13 5 7 1017.3 1017.1 0.0
08/10:30pm 19.8 19.6 15.7 77 2.4 S 11 13 6 7 1017.5 1017.3 0.0
08/10:00pm 21.5 21.3 15.8 70 3.4 SSE 11 15 6 8 1017.4 1017.2 0.0
08/09:30pm 22.2 22.1 16.0 68 3.7 SE 11 17 6 9 1017.2 1017.0 0.0
08/09:00pm 22.9 22.3 15.7 64 4.3 ESE 13 19 7 10 1017.2 1017.0 0.0
08/08:30pm 23.9 24.1 15.7 60 5.0 ESE 9 13 5 7 1017.1 1016.9 0.0
08/08:00pm 25.2 24.5 15.5 55 5.9 E 13 19 7 10 1016.8 1016.6 0.0
08/07:30pm 26.4 25.1 15.8 52 6.5 E 17 22 9 12 1016.7 1016.5 0.0
08/07:00pm 27.4 26.2 16.1 50 7.0 E 17 22 9 12 1016.4 1016.2 0.0
08/06:30pm 28.3 26.3 15.6 46 7.8 E 20 28 11 15 1016.0 1015.8 0.0
08/06:00pm 29.7 27.5 14.3 39 9.3 E 19 28 10 15 1015.6 1015.4 0.0
08/05:30pm 31.0 28.2 13.3 34 10.6 ENE 20 28 11 15 1015.6 1015.4 0.0
08/05:00pm 31.0 27.4 10.4 28 11.8 ESE 20 33 11 18 1015.5 1015.3 0.0
08/04:30pm 31.8 28.8 7.5 22 13.3 E 13 22 7 12 1015.6 1015.4 0.0
08/04:00pm 31.7 27.9 7.4 22 13.3 ENE 17 24 9 13 1015.8 1015.6 0.0
08/03:30pm 31.2 28.1 8.8 25 12.5 ESE 15 26 8 14 1016.0 1015.8 0.0
08/03:00pm 31.6 29.8 10.9 28 12.0 ESE 11 20 6 11 1016.4 1016.2 0.0
08/02:30pm 30.5 28.7 11.0 30 11.3 ENE 11 20 6 11 1016.8 1016.6 0.0
08/02:00pm 29.9 28.4 11.9 33 10.5 NE 11 19 6 10 1017.2 1017.0 0.0
08/01:30pm 29.8 29.3 12.7 35 10.1 E 7 15 4 8 1017.8 1017.6 0.0
08/01:00pm 28.9 27.8 13.2 38 9.3 N 11 17 6 9 1018.4 1018.2 0.0
08/12:30pm 28.1 27.5 11.6 36 9.5 NNE 6 11 3 6 1018.9 1018.7 0.0
08/12:00pm 27.2 26.4 11.7 38 8.9 WSW 7 11 4 6 1019.3 1019.1 0.0
08/11:30am 26.4 26.2 13.5 45 7.6 NNE 7 13 4 7 1019.8 1019.6 0.0
08/11:00am 25.1 24.7 13.0 47 7.0 NE 7 11 4 6 1020.0 1019.8 0.0
08/10:30am 24.0 24.0 12.3 48 6.7 NE 4 7 2 4 1020.3 1020.1 0.0
08/10:00am 23.3 23.5 12.9 52 6.0 WSW 4 9 2 5 1020.3 1020.1 0.0
08/09:30am 22.8 22.5 12.7 53 5.8 E 6 13 3 7 1020.5 1020.3 0.0
08/09:00am 21.9 21.4 13.8 60 4.7 ESE 9 13 5 7 1020.7 1020.5 0.0
08/08:30am 20.5 20.0 12.7 61 4.4 S 7 11 4 6 1020.6 1020.4 0.0
08/08:00am 19.6 19.7 12.6 64 3.9 SE 4 7 2 4 1020.5 1020.3 0.0
08/07:30am 18.7 18.3 12.9 69 3.3 S 7 11 4 6 1020.2 1020.0 0.0
08/07:00am 17.7 18.5 13.6 77 2.3 S 2 7 1 4 1019.9 1019.7 0.0
08/06:30am 15.4 15.0 13.1 86 1.3 SSE 7 13 4 7 1019.8 1019.6 0.0
08/06:00am 12.9 12.2 11.3 90 0.8 SW 6 11 3 6 1019.6 1019.4 0.0
08/05:30am 13.3 13.0 11.5 89 1.0 SE 4 7 2 4 1019.4 1019.2 0.0
08/05:00am 13.5 11.9 11.7 89 1.0 WSW 11 11 6 6 1019.5 1019.3 0.0
08/04:30am 14.0 14.0 11.3 84 1.4 SSW 2 6 1 3 1019.2 1019.0 0.0
08/04:00am 15.4 14.5 12.7 84 1.5 SSW 9 11 5 6 1019.2 1019.0 0.0
08/03:30am 15.7 14.6 13.0 84 1.5 SSW 11 13 6 7 1019.1 1018.9 0.0
08/03:00am 15.8 15.1 13.1 84 1.5 SSW 9 13 5 7 1019.3 1019.1 0.0
08/02:30am 16.0 15.0 13.3 84 1.5 SSW 11 13 6 7 1019.4 1019.2 0.0
08/02:00am 16.1 15.5 13.4 84 1.5 SSW 9 13 5 7 1019.7 1019.5 0.0
08/01:30am 16.6 16.0 13.5 82 1.7 SSW 9 13 5 7 1020.0 1019.8 0.0
08/01:00am 16.9 16.3 13.6 81 1.9 S 9 13 5 7 1020.2 1020.0 0.0
08/12:30am 17.3 16.4 13.6 79 2.1 S 11 13 6 7 1020.5 1020.3 0.0
08/12:00am 17.3 16.3 13.4 78 2.2 SSE 11 15 6 8 1020.8 1020.6 0.0
 
Date/Time
EDT
Temp
°C
App
Temp
°C
Dew
Point
°C
Rel
Hum
%
Delta-T
°C
Wind Press
QNH
hPa
Press
MSL
hPa
Rain since
9am
mm
Dir  Spd
km/h
Gust
km/h
Spd
kts
Gust
kts
07/11:30pm 18.0 17.0 13.5 75 2.6 SSE 11 13 6 7 1020.9 1020.7 0.0
07/11:00pm 19.0 18.1 13.6 71 3.1 SE 11 17 6 9 1021.0 1020.8 0.0
07/10:30pm 19.6 18.3 13.8 69 3.3 SSE 13 17 7 9 1021.2 1021.0 0.0

Other Formats:

Comma delimited format used in spreadsheet applications
http://www.bom.gov.au/fwo/IDN60801/IDN60801.95771.axf

JavaScript Object Notation format (JSON) in row-major order
http://www.bom.gov.au/fwo/IDN60801/IDN60801.95771.json